createdAt,value
2018-06-17T00:00:41.737Z,15.08
2018-06-17T00:01:41.736Z,14.99
2018-06-17T00:02:41.777Z,14.94
2018-06-17T00:03:41.799Z,15.04
2018-06-17T00:04:41.757Z,15.31
2018-06-17T00:05:41.801Z,15.41
2018-06-17T00:06:41.762Z,15.31
2018-06-17T00:07:41.867Z,15.44
2018-06-17T00:08:41.838Z,15.14
2018-06-17T00:09:41.818Z,15.3
2018-06-17T00:10:41.743Z,15.36
2018-06-17T00:11:41.737Z,15.37
2018-06-17T00:12:41.737Z,15.22
2018-06-17T00:13:41.728Z,15.45
2018-06-17T00:14:41.748Z,15.42
2018-06-17T00:15:41.729Z,15.48
2018-06-17T00:16:41.731Z,15.42
2018-06-17T00:17:41.747Z,15.31
2018-06-17T00:18:41.792Z,15.45
2018-06-17T00:19:41.737Z,15.39
2018-06-17T00:20:41.719Z,15.41
2018-06-17T00:21:41.735Z,15.39
2018-06-17T00:22:41.755Z,15.4
2018-06-17T00:23:41.736Z,15.5
2018-06-17T00:24:41.906Z,15.54
2018-06-17T00:25:41.767Z,15.51
2018-06-17T00:26:41.736Z,15.47
2018-06-17T00:27:41.786Z,15.38
2018-06-17T00:28:41.736Z,15.33
2018-06-17T00:29:41.733Z,15.24
2018-06-17T00:30:41.741Z,15.2
2018-06-17T00:31:41.773Z,15.2
2018-06-17T00:32:41.752Z,15.2
2018-06-17T00:33:41.760Z,15.26
2018-06-17T00:34:41.752Z,15.1
2018-06-17T00:35:41.793Z,15.01
2018-06-17T00:36:41.753Z,15.13
2018-06-17T00:37:41.777Z,15.11
2018-06-17T00:38:41.755Z,15.15
2018-06-17T00:39:42.108Z,15.19
2018-06-17T00:40:41.775Z,15.08
2018-06-17T00:41:41.761Z,15.27
2018-06-17T00:42:41.787Z,14.91
2018-06-17T00:43:41.787Z,15.23
2018-06-17T00:44:41.792Z,15.09
2018-06-17T00:45:41.765Z,15.21
2018-06-17T00:46:41.771Z,15.27
2018-06-17T00:47:41.788Z,15.21
2018-06-17T00:48:41.784Z,15.07
2018-06-17T00:49:41.760Z,14.92
2018-06-17T00:50:41.974Z,15.12
2018-06-17T00:51:41.793Z,15.25
2018-06-17T00:52:41.798Z,15.14
2018-06-17T00:53:42.300Z,15.03
2018-06-17T00:54:41.780Z,14.98
2018-06-17T00:55:41.802Z,14.81
2018-06-17T00:56:41.884Z,15
2018-06-17T00:57:41.813Z,15
2018-06-17T00:58:41.839Z,15.15
2018-06-17T00:59:41.846Z,15.17
2018-06-17T01:00:42.026Z,15.18
2018-06-17T01:01:41.818Z,15.23
2018-06-17T01:02:42.339Z,15.08
2018-06-17T01:03:42.277Z,15.31
2018-06-17T01:04:42.546Z,15.21
2018-06-17T01:05:42.741Z,15.15
2018-06-17T01:06:42.545Z,14.97
2018-06-17T01:07:42.527Z,15.11
2018-06-17T01:08:42.567Z,15.21
2018-06-17T01:09:42.540Z,15.09
2018-06-17T01:10:42.566Z,15.19
2018-06-17T01:11:42.531Z,15.26
2018-06-17T01:12:42.567Z,14.98
2018-06-17T01:13:42.815Z,15.18
2018-06-17T01:14:42.598Z,15.31
2018-06-17T01:15:42.540Z,15.33
2018-06-17T01:16:42.567Z,15.17
2018-06-17T01:17:42.564Z,15.35
2018-06-17T01:18:42.525Z,15.31
2018-06-17T01:19:42.625Z,15.1
2018-06-17T01:20:42.554Z,15.1
2018-06-17T01:21:42.487Z,14.87
2018-06-17T01:22:42.577Z,15.15
2018-06-17T01:23:42.585Z,15.03
2018-06-17T01:24:42.585Z,15.11
2018-06-17T01:25:42.539Z,14.91
2018-06-17T01:26:42.572Z,15.05
2018-06-17T01:27:42.592Z,14.85
2018-06-17T01:28:42.613Z,15.08
2018-06-17T01:29:42.600Z,15.13
2018-06-17T01:30:42.539Z,15.13
2018-06-17T01:31:42.605Z,15.19
2018-06-17T01:32:42.586Z,15.28
2018-06-17T01:33:42.523Z,15.2
2018-06-17T01:34:42.713Z,14.95
2018-06-17T01:35:42.602Z,14.91
2018-06-17T01:36:42.703Z,14.93
2018-06-17T01:37:42.604Z,14.84
2018-06-17T01:38:42.611Z,15.19
2018-06-17T01:39:42.565Z,15.06
2018-06-17T01:40:42.661Z,15.19
2018-06-17T01:41:42.696Z,15.29
2018-06-17T01:42:43.310Z,15.26
2018-06-17T01:43:42.660Z,15.3
2018-06-17T01:44:42.646Z,15.3
2018-06-17T01:45:42.656Z,15.13
2018-06-17T01:46:42.638Z,15.33
2018-06-17T01:47:42.826Z,15.24
2018-06-17T01:48:42.683Z,15.39
2018-06-17T01:49:42.589Z,15.23
2018-06-17T01:50:43.125Z,15.23
2018-06-17T01:51:42.590Z,15.2
2018-06-17T01:52:42.557Z,15.35
2018-06-17T01:53:42.622Z,15.37
2018-06-17T01:54:42.556Z,15.34
2018-06-17T01:55:42.608Z,15.3
2018-06-17T01:56:42.752Z,15.3
2018-06-17T01:57:42.561Z,15.32
2018-06-17T01:58:42.626Z,15.25
2018-06-17T01:59:42.554Z,15.29
2018-06-17T02:00:42.688Z,15.25
2018-06-17T02:01:42.688Z,15.18
2018-06-17T02:02:42.628Z,15.1
2018-06-17T02:03:42.856Z,15.17
2018-06-17T02:04:41.856Z,15.19
2018-06-17T02:05:41.864Z,15.13
2018-06-17T02:06:41.887Z,15.17
2018-06-17T02:07:41.957Z,15.08
2018-06-17T02:08:41.904Z,15.12
2018-06-17T02:09:42.008Z,15.07
2018-06-17T02:10:41.876Z,15.14
2018-06-17T02:11:41.869Z,15.14
2018-06-17T02:12:41.877Z,15.17
2018-06-17T02:13:41.881Z,15.08
2018-06-17T02:14:41.851Z,15.13
2018-06-17T02:15:41.888Z,15
2018-06-17T02:16:42.026Z,15.14
2018-06-17T02:17:42.022Z,15.17
2018-06-17T02:18:41.876Z,15.2
2018-06-17T02:19:42.026Z,15.13
2018-06-17T02:20:41.958Z,15.21
2018-06-17T02:21:41.883Z,15.24
2018-06-17T02:22:41.921Z,15.26
2018-06-17T02:23:41.990Z,15.23
2018-06-17T02:24:41.890Z,15.23
2018-06-17T02:25:42.073Z,15.27
2018-06-17T02:26:41.875Z,15.31
2018-06-17T02:27:41.890Z,15.2
2018-06-17T02:28:41.882Z,15.24
2018-06-17T02:29:41.961Z,15.25
2018-06-17T02:30:41.938Z,15.24
2018-06-17T02:31:41.902Z,15.18
2018-06-17T02:32:41.910Z,15.29
2018-06-17T02:33:41.886Z,15.29
2018-06-17T02:34:41.893Z,15.26
2018-06-17T02:35:41.901Z,15.28
2018-06-17T02:36:41.907Z,15.22
2018-06-17T02:37:41.919Z,15.26
2018-06-17T02:38:41.936Z,15.26
2018-06-17T02:39:42.063Z,15.27
2018-06-17T02:40:41.923Z,15.25
2018-06-17T02:41:41.914Z,15.18
2018-06-17T02:42:41.918Z,15.11
2018-06-17T02:43:41.921Z,15.14
2018-06-17T02:44:42.094Z,15.13
2018-06-17T02:45:42.024Z,15.09
2018-06-17T02:46:42.071Z,15.06
2018-06-17T02:47:42.019Z,15
2018-06-17T02:48:42.008Z,14.93
2018-06-17T02:49:41.921Z,14.99
2018-06-17T02:50:41.913Z,15.12
2018-06-17T02:51:42.000Z,15.24
2018-06-17T02:52:42.031Z,15.26
2018-06-17T02:53:42.051Z,15.22
2018-06-17T02:54:41.979Z,15.3
2018-06-17T02:55:42.039Z,15.29
2018-06-17T02:56:41.925Z,15.34
2018-06-17T02:57:41.959Z,15.46
2018-06-17T02:58:41.963Z,15.28
2018-06-17T02:59:41.991Z,15.43
2018-06-17T03:00:41.961Z,15.62
2018-06-17T03:01:42.021Z,15.71
2018-06-17T03:02:41.975Z,15.58
2018-06-17T03:03:42.073Z,15.75
2018-06-17T03:04:42.055Z,15.59
2018-06-17T03:05:41.959Z,15.71
2018-06-17T03:06:42.035Z,15.82
2018-06-17T03:07:42.016Z,15.77
2018-06-17T03:08:42.050Z,15.64
2018-06-17T03:09:41.930Z,15.75
2018-06-17T03:10:41.963Z,15.74
2018-06-17T03:11:42.019Z,15.78
2018-06-17T03:12:41.975Z,15.66
2018-06-17T03:13:42.012Z,15.73
2018-06-17T03:14:42.063Z,15.67
2018-06-17T03:15:42.125Z,15.56
2018-06-17T03:16:42.107Z,15.57
2018-06-17T03:17:42.111Z,15.67
2018-06-17T03:18:42.044Z,15.69
2018-06-17T03:19:41.947Z,15.71
2018-06-17T03:20:41.962Z,15.73
2018-06-17T03:21:42.012Z,15.78
2018-06-17T03:22:41.974Z,15.73
2018-06-17T03:23:41.976Z,15.71
2018-06-17T03:24:42.208Z,15.79
2018-06-17T03:25:41.989Z,15.85
2018-06-17T03:26:42.065Z,15.8
2018-06-17T03:27:42.045Z,15.78
2018-06-17T03:28:41.981Z,15.96
2018-06-17T03:29:42.102Z,15.92
2018-06-17T03:30:42.175Z,15.88
2018-06-17T03:31:42.000Z,16.05
2018-06-17T03:32:41.993Z,16.13
2018-06-17T03:33:42.056Z,16.06
2018-06-17T03:34:41.972Z,16.13
2018-06-17T03:35:42.014Z,16.23
2018-06-17T03:36:42.013Z,15.98
2018-06-17T03:37:41.952Z,16.04
2018-06-17T03:38:41.975Z,15.83
2018-06-17T03:39:41.962Z,16.13
2018-06-17T03:40:41.986Z,16.1
2018-06-17T03:41:41.979Z,16.08
2018-06-17T03:42:41.986Z,16.14
2018-06-17T03:43:41.964Z,16.15
2018-06-17T03:44:41.975Z,16.15
2018-06-17T03:45:41.973Z,16.27
2018-06-17T03:46:42.031Z,16.2
2018-06-17T03:47:41.975Z,16.33
2018-06-17T03:48:41.986Z,16.27
2018-06-17T03:49:41.988Z,16.21
2018-06-17T03:50:41.970Z,16.32
2018-06-17T03:51:41.980Z,16.21
2018-06-17T03:52:41.981Z,16.33
2018-06-17T03:53:42.003Z,16.06
2018-06-17T03:54:41.977Z,15.93
2018-06-17T03:55:42.144Z,15.91
2018-06-17T03:56:42.023Z,15.75
2018-06-17T03:57:41.994Z,15.73
2018-06-17T03:58:42.055Z,15.72
2018-06-17T03:59:42.171Z,15.65
2018-06-17T04:00:42.033Z,15.69
2018-06-17T04:01:42.012Z,15.68
2018-06-17T04:02:42.233Z,15.51
2018-06-17T04:03:42.053Z,15.57
2018-06-17T04:04:42.160Z,15.63
2018-06-17T04:05:42.112Z,15.51
2018-06-17T04:06:42.062Z,15.41
2018-06-17T04:07:42.072Z,15.38
2018-06-17T04:08:42.001Z,15.43
2018-06-17T04:09:42.025Z,15.38
2018-06-17T04:10:42.102Z,15.35
2018-06-17T04:11:42.245Z,15
2018-06-17T04:12:42.588Z,15.06
2018-06-17T04:13:42.025Z,15.08
2018-06-17T04:14:42.214Z,15.03
2018-06-17T04:15:42.094Z,14.97
2018-06-17T04:16:42.055Z,14.77
2018-06-17T04:17:42.010Z,14.72
2018-06-17T04:18:42.033Z,14.63
2018-06-17T04:19:42.022Z,14.49
2018-06-17T04:20:42.006Z,14.4
2018-06-17T04:21:42.043Z,14.34
2018-06-17T04:22:42.043Z,14.52
2018-06-17T04:23:42.017Z,14.53
2018-06-17T04:24:42.044Z,14.59
2018-06-17T04:25:42.703Z,14.61
2018-06-17T04:26:42.056Z,14.56
2018-06-17T04:27:42.106Z,14.55
2018-06-17T04:28:42.016Z,14.62
2018-06-17T04:29:42.032Z,14.55
2018-06-17T04:30:42.030Z,14.49
2018-06-17T04:31:42.035Z,14.51
2018-06-17T04:32:42.190Z,14.54
2018-06-17T04:33:42.074Z,14.52
2018-06-17T04:34:42.029Z,14.55
2018-06-17T04:35:42.057Z,14.42
2018-06-17T04:36:42.026Z,14.39
2018-06-17T04:37:42.066Z,14.37
2018-06-17T04:38:42.270Z,14.36
2018-06-17T04:39:42.040Z,14.27
2018-06-17T04:40:42.023Z,14.26
2018-06-17T04:41:42.037Z,14.27
2018-06-17T04:42:42.217Z,14.28
2018-06-17T04:43:42.079Z,14.3
2018-06-17T04:44:42.094Z,14.12
2018-06-17T04:45:42.138Z,14.05
2018-06-17T04:46:42.343Z,14.07
2018-06-17T04:47:42.072Z,14.06
2018-06-17T04:48:42.071Z,14.09
2018-06-17T04:49:42.036Z,14.12
2018-06-17T04:50:42.068Z,14.08
2018-06-17T04:51:42.069Z,14.09
2018-06-17T04:52:42.057Z,14.04
2018-06-17T04:53:42.056Z,14.11
2018-06-17T04:54:42.045Z,14.16
2018-06-17T04:55:42.034Z,14.2
2018-06-17T04:56:42.057Z,14.14
2018-06-17T04:57:42.074Z,14.15
2018-06-17T04:58:42.082Z,14.03
2018-06-17T04:59:42.089Z,14.04
2018-06-17T05:00:42.047Z,13.97
2018-06-17T05:01:42.061Z,13.95
2018-06-17T05:02:42.059Z,13.89
2018-06-17T05:03:42.070Z,13.96
2018-06-17T05:04:42.066Z,13.8
2018-06-17T05:05:42.089Z,13.77
2018-06-17T05:06:42.070Z,13.8
2018-06-17T05:07:42.085Z,13.81
2018-06-17T05:08:42.090Z,13.73
2018-06-17T05:09:42.140Z,13.71
2018-06-17T05:10:42.095Z,13.8
2018-06-17T05:11:42.213Z,13.78
2018-06-17T05:12:42.305Z,13.74
2018-06-17T05:13:42.139Z,13.78
2018-06-17T05:14:42.207Z,13.73
2018-06-17T05:15:42.209Z,13.62
2018-06-17T05:16:42.172Z,13.75
2018-06-17T05:17:42.181Z,13.79
2018-06-17T05:18:42.199Z,13.91
2018-06-17T05:19:42.122Z,13.82
2018-06-17T05:20:42.070Z,13.82
2018-06-17T05:21:42.109Z,13.8
2018-06-17T05:22:42.126Z,13.79
2018-06-17T05:23:42.149Z,13.6
2018-06-17T05:24:42.096Z,13.79
2018-06-17T05:25:42.121Z,13.82
2018-06-17T05:26:42.150Z,13.73
2018-06-17T05:27:42.137Z,13.71
2018-06-17T05:28:42.229Z,13.85
2018-06-17T05:29:42.176Z,13.68
2018-06-17T05:30:42.142Z,13.79
2018-06-17T05:31:42.103Z,13.74
2018-06-17T05:32:42.108Z,13.61
2018-06-17T05:33:42.304Z,13.9
2018-06-17T05:34:42.122Z,13.81
2018-06-17T05:35:42.134Z,13.53
2018-06-17T05:36:42.120Z,13.67
2018-06-17T05:37:42.114Z,13.36
2018-06-17T05:38:42.103Z,13.26
2018-06-17T05:39:42.219Z,13.35
2018-06-17T05:40:42.137Z,13.36
2018-06-17T05:41:42.106Z,13.31
2018-06-17T05:42:42.120Z,13.37
2018-06-17T05:43:42.155Z,13.55
2018-06-17T05:44:42.290Z,13.55
2018-06-17T05:45:42.124Z,13.33
2018-06-17T05:46:42.208Z,13.34
2018-06-17T05:47:42.167Z,13.41
2018-06-17T05:48:42.126Z,13.39
2018-06-17T05:49:42.135Z,13.41
2018-06-17T05:50:42.144Z,13.4
2018-06-17T05:51:42.247Z,13.47
2018-06-17T05:52:42.187Z,13.41
2018-06-17T05:53:42.116Z,13.18
2018-06-17T05:54:42.193Z,13.42
2018-06-17T05:55:42.606Z,13.18
2018-06-17T05:56:42.116Z,13.33
2018-06-17T05:57:42.186Z,13.38
2018-06-17T05:58:42.128Z,13.37
2018-06-17T05:59:42.120Z,13.46
2018-06-17T06:00:42.366Z,13.4
2018-06-17T06:01:42.148Z,13.31
2018-06-17T06:02:42.276Z,13.4
2018-06-17T06:03:42.194Z,13.27
2018-06-17T06:04:42.134Z,13.31
2018-06-17T06:05:42.147Z,13.4
2018-06-17T06:06:42.150Z,13.42
2018-06-17T06:07:42.224Z,13.29
2018-06-17T06:08:42.135Z,13.26
2018-06-17T06:09:42.197Z,13.33
2018-06-17T06:10:42.198Z,13.43
2018-06-17T06:11:42.131Z,13.22
2018-06-17T06:12:42.152Z,13.43
2018-06-17T06:13:42.591Z,13.39
2018-06-17T06:14:42.138Z,13.32
2018-06-17T06:15:42.156Z,13.16
2018-06-17T06:16:42.420Z,13.15
2018-06-17T06:17:42.470Z,13.3
2018-06-17T06:18:42.146Z,13.3
2018-06-17T06:19:42.242Z,13.39
2018-06-17T06:20:42.178Z,13.37
2018-06-17T06:21:42.534Z,13.23
2018-06-17T06:22:43.872Z,13.2
2018-06-17T06:23:43.569Z,13.32
2018-06-17T06:24:42.671Z,13.15
2018-06-17T06:25:42.262Z,13.24
2018-06-17T06:26:42.165Z,13.24
2018-06-17T06:27:42.170Z,13.4
2018-06-17T06:28:42.320Z,13.37
2018-06-17T06:29:42.182Z,13.39
2018-06-17T06:30:42.184Z,13.14
2018-06-17T06:31:42.191Z,13.01
2018-06-17T06:32:42.188Z,13.03
2018-06-17T06:33:42.233Z,13.14
2018-06-17T06:34:42.340Z,13.26
2018-06-17T06:35:42.209Z,13.24
2018-06-17T06:36:42.185Z,13.06
2018-06-17T06:37:42.191Z,12.9
2018-06-17T06:38:42.193Z,12.85
2018-06-17T06:39:42.165Z,13.08
2018-06-17T06:40:42.227Z,12.96
2018-06-17T06:41:42.248Z,12.88
2018-06-17T06:42:42.258Z,12.93
2018-06-17T06:43:42.196Z,12.86
2018-06-17T06:44:42.198Z,12.68
2018-06-17T06:45:42.539Z,12.68
2018-06-17T06:46:42.190Z,12.81
2018-06-17T06:47:42.222Z,13.06
2018-06-17T06:48:42.194Z,12.79
2018-06-17T06:49:42.191Z,13.03
2018-06-17T06:50:42.199Z,12.94
2018-06-17T06:51:42.200Z,12.89
2018-06-17T06:52:42.211Z,12.72
2018-06-17T06:53:42.343Z,12.62
2018-06-17T06:54:42.197Z,12.9
2018-06-17T06:55:42.270Z,12.77
2018-06-17T06:56:42.251Z,12.82
2018-06-17T06:57:42.225Z,12.8
2018-06-17T06:58:42.307Z,12.69
2018-06-17T06:59:42.222Z,12.72
2018-06-17T07:00:42.211Z,12.91
2018-06-17T07:01:42.254Z,12.8
2018-06-17T07:02:42.252Z,12.69
2018-06-17T07:03:42.265Z,12.86
2018-06-17T07:04:42.246Z,12.81
2018-06-17T07:05:42.470Z,12.78
2018-06-17T07:06:42.207Z,12.79
2018-06-17T07:07:42.635Z,12.93
2018-06-17T07:08:42.247Z,13.17
2018-06-17T07:09:42.344Z,12.87
2018-06-17T07:10:42.255Z,13.09
2018-06-17T07:11:42.217Z,12.99
2018-06-17T07:12:42.347Z,12.81
2018-06-17T07:13:42.222Z,12.86
2018-06-17T07:14:42.346Z,12.74
2018-06-17T07:15:42.845Z,12.83
2018-06-17T07:16:42.539Z,12.74
2018-06-17T07:17:42.241Z,12.55
2018-06-17T07:18:42.257Z,12.23
2018-06-17T07:19:42.267Z,12.01
2018-06-17T07:20:42.294Z,12.09
2018-06-17T07:21:42.260Z,12.02
2018-06-17T07:22:42.261Z,12.15
2018-06-17T07:23:42.268Z,12.28
2018-06-17T07:24:42.236Z,12.21
2018-06-17T07:25:42.238Z,12.2
2018-06-17T07:26:42.227Z,11.98
2018-06-17T07:27:42.238Z,12.23
2018-06-17T07:28:42.236Z,12.08
2018-06-17T07:29:42.446Z,12.13
2018-06-17T07:30:42.221Z,11.99
2018-06-17T07:31:42.449Z,12.06
2018-06-17T07:32:42.611Z,12.12
2018-06-17T07:33:42.275Z,12.06
2018-06-17T07:34:42.245Z,12.19
2018-06-17T07:35:42.325Z,12.22
2018-06-17T07:36:42.261Z,12.1
2018-06-17T07:37:42.297Z,12.39
2018-06-17T07:38:42.386Z,12.45
2018-06-17T07:39:42.456Z,12.3
2018-06-17T07:40:42.365Z,12.39
2018-06-17T07:41:42.264Z,12.58
2018-06-17T07:42:42.239Z,12.58
2018-06-17T07:43:42.540Z,12.61
2018-06-17T07:44:42.293Z,12.33
2018-06-17T07:45:42.259Z,12.3
2018-06-17T07:46:42.241Z,11.8
2018-06-17T07:47:42.372Z,11.57
2018-06-17T07:48:42.297Z,11.51
2018-06-17T07:49:42.316Z,11.34
2018-06-17T07:50:42.284Z,11.56
2018-06-17T07:51:42.346Z,11.44
2018-06-17T07:52:42.292Z,11.39
2018-06-17T07:53:42.301Z,11.39
2018-06-17T07:54:42.337Z,11.4
2018-06-17T07:55:42.394Z,11.53
2018-06-17T07:56:42.445Z,11.54
2018-06-17T07:57:42.420Z,11.59
2018-06-17T07:58:42.380Z,11.67
2018-06-17T07:59:42.439Z,11.73
2018-06-17T08:00:42.278Z,11.73
2018-06-17T08:01:42.338Z,10.9
2018-06-17T08:02:42.351Z,10.95
2018-06-17T08:03:42.282Z,11.43
2018-06-17T08:04:42.500Z,11.22
2018-06-17T08:05:42.477Z,11.39
2018-06-17T08:06:42.400Z,11.33
2018-06-17T08:07:42.585Z,11.18
2018-06-17T08:08:42.293Z,11.32
2018-06-17T08:09:42.278Z,11.24
2018-06-17T08:10:42.529Z,11.61
2018-06-17T08:11:42.302Z,10.43
2018-06-17T08:12:42.289Z,10.71
2018-06-17T08:13:42.278Z,10.21
2018-06-17T08:14:42.500Z,10.46
2018-06-17T08:15:42.414Z,10.82
2018-06-17T08:16:42.310Z,11.11
2018-06-17T08:17:42.308Z,10.95
2018-06-17T08:18:42.428Z,11.2
2018-06-17T08:19:42.288Z,11.09
2018-06-17T08:20:42.472Z,11.24
2018-06-17T08:21:42.340Z,10.48
2018-06-17T08:22:42.326Z,10.68
2018-06-17T08:23:42.317Z,10.65
2018-06-17T08:24:42.327Z,10.45
2018-06-17T08:25:42.325Z,10.39
2018-06-17T08:26:49.542Z,10.33
2018-06-17T08:27:42.322Z,9.65
2018-06-17T08:28:42.329Z,9.92
2018-06-17T08:29:42.970Z,9.82
2018-06-17T08:30:50.638Z,10
2018-06-17T08:31:47.780Z,10.37
2018-06-17T08:32:54.690Z,10.48
2018-06-17T08:33:45.395Z,10.67
2018-06-17T08:34:46.725Z,10.56
2018-06-17T08:35:46.352Z,10.97
2018-06-17T08:36:42.346Z,10.99
2018-06-17T08:37:42.363Z,11.13
2018-06-17T08:38:42.347Z,11.39
2018-06-17T08:39:42.337Z,11.42
2018-06-17T08:40:42.611Z,11.48
2018-06-17T08:41:42.395Z,11.63
2018-06-17T08:42:42.316Z,11.79
2018-06-17T08:43:42.330Z,11.75
2018-06-17T08:44:42.319Z,11.61
2018-06-17T08:45:42.344Z,11.62
2018-06-17T08:46:42.605Z,11.53
2018-06-17T08:47:42.327Z,11.52
2018-06-17T08:48:42.360Z,11.32
2018-06-17T08:49:42.345Z,11.68
2018-06-17T08:50:42.396Z,11.52
2018-06-17T08:51:42.330Z,11.66
2018-06-17T08:52:42.498Z,11.85
2018-06-17T08:53:42.373Z,11.77
2018-06-17T08:54:42.364Z,11.84
2018-06-17T08:55:42.498Z,11.99
2018-06-17T08:56:42.358Z,12.05
2018-06-17T08:57:42.339Z,11.96
2018-06-17T08:58:42.619Z,11.96
2018-06-17T08:59:42.533Z,11.77
2018-06-17T09:00:42.356Z,11.61
2018-06-17T09:01:42.396Z,11.6
2018-06-17T09:02:42.466Z,11.78
2018-06-17T09:03:42.384Z,11.5
2018-06-17T09:04:42.570Z,11.66
2018-06-17T09:05:42.401Z,11.8
2018-06-17T09:06:42.486Z,11.39
2018-06-17T09:07:42.590Z,11.79
2018-06-17T09:08:42.484Z,11.9
2018-06-17T09:09:42.591Z,11.79
2018-06-17T09:10:42.743Z,11.59
2018-06-17T09:11:42.518Z,11.69
2018-06-17T09:12:42.496Z,11.6
2018-06-17T09:13:42.411Z,11.69
2018-06-17T09:14:42.552Z,11.73
2018-06-17T09:15:42.739Z,12.03
2018-06-17T09:16:42.603Z,12.11
2018-06-17T09:17:42.567Z,12.22
2018-06-17T09:18:42.549Z,11.85
2018-06-17T09:19:42.451Z,11.87
2018-06-17T09:20:42.463Z,11.81
2018-06-17T09:21:42.570Z,11.95
2018-06-17T09:22:42.371Z,11.91
2018-06-17T09:23:42.679Z,11.89
2018-06-17T09:24:42.364Z,11.91
2018-06-17T09:25:42.364Z,11.99
2018-06-17T09:26:42.361Z,11.93
2018-06-17T09:27:42.380Z,11.94
2018-06-17T09:28:42.359Z,11.42
2018-06-17T09:29:42.419Z,11.45
2018-06-17T09:30:42.387Z,11.52
2018-06-17T09:31:42.593Z,11.83
2018-06-17T09:32:42.533Z,11.56
2018-06-17T09:33:42.391Z,11.5
2018-06-17T09:34:42.659Z,11.54
2018-06-17T09:35:42.551Z,11.51
2018-06-17T09:36:42.432Z,11.54
2018-06-17T09:37:42.460Z,11.7
2018-06-17T09:38:42.383Z,11.67
2018-06-17T09:39:42.602Z,11.9
2018-06-17T09:40:42.500Z,11.91
2018-06-17T09:41:42.507Z,12.06
2018-06-17T09:42:42.376Z,11.98
2018-06-17T09:43:42.390Z,12.13
2018-06-17T09:44:42.396Z,12.24
2018-06-17T09:45:42.424Z,12.3
2018-06-17T09:46:42.425Z,12.2
2018-06-17T09:47:42.444Z,12.16
2018-06-17T09:48:42.409Z,11.91
2018-06-17T09:49:42.630Z,11.86
2018-06-17T09:50:42.400Z,12.02
2018-06-17T09:51:42.464Z,12.14
2018-06-17T09:52:42.394Z,12.29
2018-06-17T09:53:42.436Z,12.31
2018-06-17T09:54:42.609Z,11.72
2018-06-17T09:55:42.604Z,12.07
2018-06-17T09:56:42.426Z,12.01
2018-06-17T09:57:42.535Z,12.18
2018-06-17T09:58:42.488Z,11.86
2018-06-17T09:59:42.493Z,11.79
2018-06-17T10:00:42.429Z,11.65
2018-06-17T10:01:42.702Z,11.97
2018-06-17T10:02:42.478Z,11.6
2018-06-17T10:03:42.544Z,11.78
2018-06-17T10:04:42.559Z,11.65
2018-06-17T10:05:42.467Z,11.54
2018-06-17T10:06:42.445Z,11.68
2018-06-17T10:07:42.438Z,11.69
2018-06-17T10:08:42.455Z,11.48
2018-06-17T10:09:42.594Z,11.52
2018-06-17T10:10:42.424Z,11.69
2018-06-17T10:11:42.446Z,11.76
2018-06-17T10:12:42.424Z,11.79
2018-06-17T10:13:42.506Z,12
2018-06-17T10:14:42.646Z,12.18
2018-06-17T10:15:42.430Z,11.95
2018-06-17T10:16:42.610Z,11.81
2018-06-17T10:17:42.450Z,12.12
2018-06-17T10:18:42.439Z,12.16
2018-06-17T10:19:42.567Z,12.23
2018-06-17T10:20:42.485Z,12.32
2018-06-17T10:21:42.469Z,12.46
2018-06-17T10:22:42.447Z,12.17
2018-06-17T10:23:42.456Z,12.39
2018-06-17T10:24:42.438Z,12.37
2018-06-17T10:25:42.589Z,12.32
2018-06-17T10:26:42.443Z,12.31
2018-06-17T10:27:42.492Z,11.91
2018-06-17T10:28:42.493Z,11.7
2018-06-17T10:29:42.489Z,11.33
2018-06-17T10:30:42.432Z,11.27
2018-06-17T10:31:42.467Z,11.24
2018-06-17T10:32:42.481Z,11.23
2018-06-17T10:33:42.629Z,11.36
2018-06-17T10:34:42.655Z,11.36
2018-06-17T10:35:42.479Z,11.41
2018-06-17T10:36:42.467Z,11.54
2018-06-17T10:37:42.497Z,11.41
2018-06-17T10:38:42.511Z,11.44
2018-06-17T10:39:42.483Z,11.39
2018-06-17T10:40:42.442Z,11.7
2018-06-17T10:41:42.492Z,11.84
2018-06-17T10:42:42.501Z,11.94
2018-06-17T10:43:42.506Z,12.08
2018-06-17T10:44:42.468Z,11.47
2018-06-17T10:45:42.530Z,11.19
2018-06-17T10:46:42.471Z,11.64
2018-06-17T10:47:42.531Z,11.58
2018-06-17T10:48:42.512Z,11.52
2018-06-17T10:49:42.558Z,11.45
2018-06-17T10:50:42.486Z,11.59
2018-06-17T10:51:42.499Z,11.57
2018-06-17T10:52:42.468Z,11.72
2018-06-17T10:53:42.508Z,11.85
2018-06-17T10:54:42.499Z,11.85
2018-06-17T10:55:43.533Z,11.76
2018-06-17T10:56:42.533Z,11.58
2018-06-17T10:57:42.508Z,11.79
2018-06-17T10:58:42.519Z,11.9
2018-06-17T10:59:42.616Z,11.71
2018-06-17T11:00:42.460Z,11.61
2018-06-17T11:01:42.502Z,11.69
2018-06-17T11:02:42.509Z,11.82
2018-06-17T11:03:42.497Z,11.78
2018-06-17T11:04:42.557Z,11.54
2018-06-17T11:05:43.270Z,11.6
2018-06-17T11:06:42.525Z,11.76
2018-06-17T11:07:42.677Z,11.76
2018-06-17T11:08:42.515Z,11.64
2018-06-17T11:09:43.618Z,12
2018-06-17T11:10:42.695Z,12.29
2018-06-17T11:11:42.511Z,12.25
2018-06-17T11:12:42.576Z,12.04
2018-06-17T11:13:42.612Z,12.03
2018-06-17T11:14:42.621Z,12.49
2018-06-17T11:15:42.555Z,12.22
2018-06-17T11:16:42.499Z,12.19
2018-06-17T11:17:42.533Z,12
2018-06-17T11:18:42.497Z,11.95
2018-06-17T11:19:42.818Z,11.53
2018-06-17T11:20:42.517Z,11.95
2018-06-17T11:21:42.610Z,12.02
2018-06-17T11:22:42.524Z,12.1
2018-06-17T11:23:42.576Z,12.31
2018-06-17T11:24:42.694Z,12.06
2018-06-17T11:25:42.810Z,11.78
2018-06-17T11:26:42.744Z,11.67
2018-06-17T11:27:42.674Z,11.79
2018-06-17T11:28:42.654Z,11.88
2018-06-17T11:29:42.674Z,11.85
2018-06-17T11:30:42.634Z,11.84
2018-06-17T11:31:42.793Z,11.92
2018-06-17T11:32:42.815Z,11.51
2018-06-17T11:33:42.704Z,11.49
2018-06-17T11:34:42.729Z,11.36
2018-06-17T11:35:42.802Z,11.6
2018-06-17T11:36:42.750Z,11.68
2018-06-17T11:37:42.683Z,11.66
2018-06-17T11:38:42.686Z,11.74
2018-06-17T11:39:42.660Z,11.93
2018-06-17T11:40:42.793Z,11.64
2018-06-17T11:41:42.656Z,11.74
2018-06-17T11:42:42.535Z,11.67
2018-06-17T11:43:42.541Z,11.93
2018-06-17T11:44:43.460Z,11.86
2018-06-17T11:45:42.694Z,11.75
2018-06-17T11:46:42.691Z,11.75
2018-06-17T11:47:42.569Z,11.59
2018-06-17T11:48:42.646Z,11.82
2018-06-17T11:49:42.744Z,11.91
2018-06-17T11:50:42.583Z,11.89
2018-06-17T11:51:42.749Z,11.91
2018-06-17T11:52:42.570Z,11.95
2018-06-17T11:53:42.577Z,12.1
2018-06-17T11:54:42.723Z,12.2
2018-06-17T11:55:43.024Z,11.82
2018-06-17T11:56:42.765Z,11.94
2018-06-17T11:57:42.700Z,11.98
2018-06-17T11:58:42.716Z,11.84
2018-06-17T11:59:43.058Z,11.8
2018-06-17T12:00:42.734Z,11.95
2018-06-17T12:01:42.717Z,12.3
2018-06-17T12:02:42.561Z,12.14
2018-06-17T12:03:42.572Z,12.09
2018-06-17T12:04:42.559Z,11.92
2018-06-17T12:11:46.820Z,12.44
2018-06-17T12:12:46.792Z,12.4
2018-06-17T12:13:50.038Z,12.09
2018-06-17T12:14:47.069Z,12.16
2018-06-17T12:15:46.849Z,12.35
2018-06-17T12:16:46.768Z,12.52
2018-06-17T12:17:46.781Z,12.41
2018-06-17T12:18:46.911Z,12.44
2018-06-17T12:19:47.948Z,12.35
2018-06-17T12:20:46.757Z,12.29
2018-06-17T12:21:46.775Z,12.14
2018-06-17T12:22:46.933Z,12.1
2018-06-17T12:23:46.777Z,12.12
2018-06-17T12:24:46.958Z,12.41
2018-06-17T12:25:47.071Z,12.41
2018-06-17T12:26:46.932Z,12.39
2018-06-17T12:27:46.935Z,12.55
2018-06-17T12:28:46.941Z,12.35
2018-06-17T12:29:46.745Z,12.33
2018-06-17T12:30:46.738Z,12.4
2018-06-17T12:31:46.910Z,12.52
2018-06-17T12:32:46.904Z,12.29
2018-06-17T12:33:47.160Z,12.28
2018-06-17T12:34:46.928Z,12.29
2018-06-17T12:35:46.975Z,12.46
2018-06-17T12:36:47.112Z,12.54
2018-06-17T12:37:46.885Z,12.59
2018-06-17T12:38:46.839Z,12.53
2018-06-17T12:39:46.757Z,12.33
2018-06-17T12:40:46.972Z,12.42
2018-06-17T12:41:46.770Z,12.49
2018-06-17T12:42:46.791Z,12.34
2018-06-17T12:43:47.061Z,12.39
2018-06-17T12:44:46.972Z,12.42
2018-06-17T12:45:46.768Z,12.43
2018-06-17T12:46:46.821Z,12.49
2018-06-17T12:47:46.830Z,12.41
2018-06-17T12:48:47.062Z,12.37
2018-06-17T12:49:47.069Z,12.46
2018-06-17T12:50:46.761Z,12.66
2018-06-17T12:51:46.732Z,12.59
2018-06-17T12:52:32.760Z,12.54
2018-06-17T12:53:32.967Z,12.63
2018-06-17T12:54:32.868Z,12.83
2018-06-17T12:55:32.730Z,12.68
2018-06-17T12:56:32.889Z,12.74
2018-06-17T12:57:32.706Z,12.64
2018-06-17T12:58:32.732Z,12.47
2018-06-17T12:59:32.780Z,12.44
2018-06-17T13:00:32.708Z,12.56
2018-06-17T13:01:32.703Z,12.52
2018-06-17T13:02:32.740Z,12.59